Time;durP1;ratioP1;P1;durP2;ratioP2;P2;SDS_P1;SDS_P2;PMS_P1;PMS_P2;Temp;Humidity;BMP_temperature;BMP_pressure;BME280_temperature;BME280_humidity;BME280_pressure;Samples;Min_cycle;Max_cycle;Signal;HPM_P1;HPM_P2
2021/08/02 00:01:53;;;;;;;4.43;2.50;;;;;;;14.44;82.08;96025.47;4932692;28;20430;-74
2021/08/02 00:04:25;;;;;;;5.15;2.67;;;;;;;14.44;82.39;96036.41;4932282;28;20048;-75
2021/08/02 00:06:53;;;;;;;4.35;2.42;;;;;;;14.42;82.14;96036.78;4947340;28;20047;-75
2021/08/02 00:09:24;;;;;;;4.28;2.17;;;;;;;14.43;82.29;96034.84;4951248;28;20406;-75
2021/08/02 00:11:55;;;;;;;2.97;1.98;;;;;;;14.44;82.19;96030.94;4951792;28;20050;-76
2021/08/02 00:14:23;;;;;;;3.15;2.42;;;;;;;14.43;82.01;96040.31;4951433;28;20399;-76
2021/08/02 00:16:49;;;;;;;4.95;2.42;;;;;;;14.42;82.27;96034.03;4951510;28;20043;-75
2021/08/02 00:19:16;;;;;;;4.00;2.30;;;;;;;14.45;81.85;96035.28;4951109;28;20074;-72
2021/08/02 00:21:43;;;;;;;2.80;2.17;;;;;;;14.49;82.15;96036.19;4951369;28;20062;-71
2021/08/02 00:24:09;;;;;;;6.38;2.30;;;;;;;14.51;81.93;96047.59;4950940;28;20055;-71
2021/08/02 00:26:40;;;;;;;8.95;2.40;;;;;;;14.51;81.98;96042.13;4951443;28;20047;-72
2021/08/02 00:29:07;;;;;;;4.35;2.20;;;;;;;14.52;81.45;96043.72;4950972;28;20105;-71
2021/08/02 00:31:35;;;;;;;6.47;2.38;;;;;;;14.56;81.46;96045.41;4951393;28;20050;-71
2021/08/02 00:34:01;;;;;;;4.30;2.10;;;;;;;14.57;81.32;96040.72;4957791;28;20043;-71
2021/08/02 00:36:36;;;;;;;4.93;2.05;;;;;;;14.59;81.04;96043.91;4957257;28;20074;-71
2021/08/02 00:39:05;;;;;;;5.68;2.25;;;;;;;14.60;81.07;96034.53;4950435;28;20383;-71
2021/08/02 00:42:07;;;;;;;4.65;2.10;;;;;;;14.61;80.96;96047.09;4949993;28;20759;-73
2021/08/02 00:45:08;;;;;;;6.03;2.20;;;;;;;14.58;81.02;96045.84;4951286;28;20051;-71
2021/08/02 00:47:39;;;;;;;3.65;1.92;;;;;;;14.55;80.74;96043.00;4951369;28;20058;-71
2021/08/02 00:50:08;;;;;;;4.20;2.42;;;;;;;14.57;80.93;96038.00;4950961;28;20055;-70
2021/08/02 00:52:35;;;;;;;4.32;1.90;;;;;;;14.52;80.67;96033.56;4951082;28;20051;-71
2021/08/02 00:55:04;;;;;;;3.28;2.00;;;;;;;14.56;81.53;96039.94;4951176;28;20073;-71
2021/08/02 00:57:36;;;;;;;5.72;2.00;;;;;;;14.54;80.14;96036.72;4950963;28;20039;-73
2021/08/02 01:00:06;;;;;;;4.45;1.88;;;;;;;14.58;80.54;96031.34;4950759;28;20514;-73
2021/08/02 01:02:38;;;;;;;2.53;1.92;;;;;;;14.56;80.28;96039.13;4951261;28;20059;-71
2021/08/02 01:05:07;;;;;;;2.72;2.03;;;;;;;14.52;80.18;96035.50;4951000;28;20058;-71
2021/08/02 01:07:38;;;;;;;3.83;2.00;;;;;;;14.48;80.07;96037.34;4938782;28;20517;-72
2021/08/02 01:10:05;;;;;;;4.78;2.60;;;;;;;14.48;80.30;96043.63;4950498;28;20047;-71
2021/08/02 01:12:35;;;;;;;4.45;2.00;;;;;;;14.50;80.29;96043.25;4950882;28;20513;-71
2021/08/02 01:15:02;;;;;;;6.38;2.10;;;;;;;14.55;80.46;96045.75;4950716;28;20517;-71
2021/08/02 01:17:29;;;;;;;2.65;1.98;;;;;;;14.55;80.31;96059.44;4950634;28;20059;-71
2021/08/02 01:19:56;;;;;;;3.55;2.05;;;;;;;14.57;80.12;96046.22;4950835;28;20062;-71
2021/08/02 01:22:29;;;;;;;2.83;1.92;;;;;;;14.58;80.06;96047.81;4949803;28;20407;-72
2021/08/02 01:24:56;;;;;;;4.05;1.80;;;;;;;14.60;80.12;96050.97;4950776;28;20047;-71
2021/08/02 01:28:12;;;;;;;2.50;2.10;;;;;;;14.53;80.14;96046.09;4950330;28;20430;-71
2021/08/02 01:30:38;;;;;;;6.60;2.05;;;;;;;14.50;79.80;96040.53;4917033;28;20051;-71
2021/08/02 01:33:05;;;;;;;4.63;2.05;;;;;;;14.43;79.98;96040.31;4950294;28;20062;-71
2021/08/02 01:35:31;;;;;;;5.97;2.30;;;;;;;14.42;80.22;96038.72;4951292;28;20498;-71
2021/08/02 01:38:00;;;;;;;3.38;2.30;;;;;;;14.42;80.26;96039.53;4950447;28;20461;-71
2021/08/02 01:40:26;;;;;;;4.95;2.08;;;;;;;14.41;80.37;96042.59;4950054;28;20055;-71
2021/08/02 01:42:53;;;;;;;5.07;2.22;;;;;;;14.32;80.10;96035.34;4950352;28;20066;-71
2021/08/02 01:45:19;;;;;;;4.45;2.50;;;;;;;14.30;80.02;96034.09;4949954;28;20056;-71
2021/08/02 01:47:59;;;;;;;6.85;2.38;;;;;;;14.22;80.22;96038.56;4950450;28;20051;-71
2021/08/02 01:50:36;;;;;;;8.60;2.80;;;;;;;14.10;80.80;96039.44;4949961;28;20063;-71
2021/08/02 01:53:21;;;;;;;5.25;2.58;;;;;;;14.07;80.88;96034.63;4949978;28;20101;-71
2021/08/02 01:55:59;;;;;;;6.40;2.58;;;;;;;13.98;81.43;96035.94;4950399;28;20052;-71
2021/08/02 01:58:30;;;;;;;6.45;2.35;;;;;;;13.91;81.53;96042.00;4949811;28;20406;-72
2021/08/02 02:00:58;;;;;;;7.80;2.60;;;;;;;13.88;81.64;96041.88;4950178;28;20055;-71
2021/08/02 02:03:25;;;;;;;5.00;2.55;;;;;;;13.80;81.91;96041.69;4949853;28;20449;-73
2021/08/02 02:05:57;;;;;;;3.67;2.50;;;;;;;13.78;82.09;96049.47;4951023;28;20079;-73
2021/08/02 02:08:31;;;;;;;4.97;2.40;;;;;;;13.75;82.32;96047.41;4949651;28;20051;-73
2021/08/02 02:11:02;;;;;;;3.88;2.60;;;;;;;13.74;82.56;96058.69;4950151;28;20051;-73
2021/08/02 02:13:31;;;;;;;5.38;2.75;;;;;;;13.74;82.23;96047.75;4949923;28;20051;-73
2021/08/02 02:15:59;;;;;;;5.55;2.40;;;;;;;13.72;82.46;96055.50;4950174;28;20054;-72
2021/08/02 02:18:28;;;;;;;4.90;2.70;;;;;;;13.71;82.55;96051.16;4949450;28;20051;-73
2021/08/02 02:20:58;;;;;;;8.98;3.00;;;;;;;13.72;82.24;96053.56;4950032;28;20055;-73
2021/08/02 02:23:28;;;;;;;4.20;2.53;;;;;;;13.69;82.28;96054.25;4949506;28;20059;-71
2021/08/02 02:25:55;;;;;;;6.25;2.80;;;;;;;13.66;82.44;96060.41;4949938;28;20058;-71
2021/08/02 02:28:22;;;;;;;7.03;2.80;;;;;;;13.64;83.04;96056.44;4949369;28;20062;-71
2021/08/02 02:30:49;;;;;;;8.32;2.90;;;;;;;13.69;82.82;96067.16;4949919;28;20051;-71
2021/08/02 02:33:18;;;;;;;3.95;2.90;;;;;;;13.70;82.90;96066.78;4949394;28;20043;-71
2021/08/02 02:35:47;;;;;;;5.22;2.80;;;;;;;13.73;82.86;96068.84;4977672;28;20052;-71
2021/08/02 02:38:16;;;;;;;5.13;2.90;;;;;;;13.73;82.78;96063.38;4989388;28;20050;-72
2021/08/02 02:40:45;;;;;;;4.43;2.92;;;;;;;13.80;83.00;96063.59;4953026;28;20628;-71
2021/08/02 02:43:13;;;;;;;4.80;3.30;;;;;;;13.90;82.81;96072.47;4952760;28;20047;-71
2021/08/02 02:45:42;;;;;;;5.07;2.88;;;;;;;13.95;82.26;96069.47;4953063;28;20047;-71
2021/08/02 02:48:09;;;;;;;7.75;2.85;;;;;;;13.99;82.08;96073.91;4952572;28;20051;-71
2021/08/02 02:50:37;;;;;;;5.18;2.65;;;;;;;14.05;81.77;96074.47;4952999;28;20062;-72
2021/08/02 02:53:06;;;;;;;5.07;2.70;;;;;;;14.11;81.36;96070.34;4952466;28;20506;-71
2021/08/02 02:55:35;;;;;;;4.95;2.90;;;;;;;14.13;81.04;96070.78;4952806;28;20054;-71
2021/08/02 02:58:03;;;;;;;6.70;3.22;;;;;;;14.14;80.98;96072.38;4952629;28;20529;-71
2021/08/02 03:00:30;;;;;;;3.97;2.85;;;;;;;14.13;80.83;96078.19;4952662;28;20048;-71
2021/08/02 03:02:59;;;;;;;6.78;3.25;;;;;;;14.13;80.74;96076.25;4952801;28;20522;-72
2021/08/02 03:05:29;;;;;;;5.88;3.00;;;;;;;14.10;80.93;96076.97;4953130;28;20046;-71
2021/08/02 03:07:58;;;;;;;5.50;3.25;;;;;;;14.14;81.04;96083.31;4952649;28;20055;-71
2021/08/02 03:10:26;;;;;;;7.30;3.58;;;;;;;14.20;81.27;96079.22;4952345;28;20449;-71
2021/08/02 03:12:54;;;;;;;8.63;3.75;;;;;;;14.26;81.15;96080.56;4952868;28;20097;-71
2021/08/02 03:15:22;;;;;;;7.70;3.10;;;;;;;14.29;80.65;96073.56;4951964;28;20043;-71
2021/08/02 03:17:48;;;;;;;5.90;2.95;;;;;;;14.29;80.76;96074.38;4952739;28;20047;-71
2021/08/02 03:20:16;;;;;;;5.65;3.30;;;;;;;14.30;80.69;96075.16;4952233;28;20044;-72
2021/08/02 03:22:46;;;;;;;6.97;3.22;;;;;;;14.35;80.95;96081.22;4952520;28;20053;-71
2021/08/02 03:25:19;;;;;;;11.25;3.75;;;;;;;14.39;80.49;96088.72;4952120;28;20503;-71
2021/08/02 03:27:51;;;;;;;5.93;2.97;;;;;;;14.38;80.03;96084.41;4952438;28;20039;-72
2021/08/02 03:30:18;;;;;;;6.95;3.45;;;;;;;14.42;80.00;96090.78;4952195;28;20062;-71
2021/08/02 03:32:47;;;;;;;4.28;3.20;;;;;;;14.40;79.95;96084.81;4952493;28;20051;-70
2021/08/02 03:35:16;;;;;;;5.40;3.17;;;;;;;14.40;79.67;96076.63;4955534;28;20055;-71
2021/08/02 03:37:44;;;;;;;6.65;3.53;;;;;;;14.39;79.14;96088.72;5010632;28;20402;-71
2021/08/02 03:40:15;;;;;;;5.60;3.83;;;;;;;14.34;79.08;96082.34;4951889;28;20058;-71
2021/08/02 03:42:42;;;;;;;6.40;3.90;;;;;;;14.37;78.99;96091.81;4950719;28;20055;-71
2021/08/02 03:45:10;;;;;;;6.53;3.17;;;;;;;14.36;79.14;96085.53;4951630;28;20055;-71
2021/08/02 03:47:38;;;;;;;8.23;3.40;;;;;;;14.38;78.97;96078.91;4952332;28;20048;-71
2021/08/02 03:50:06;;;;;;;7.20;3.60;;;;;;;14.32;79.60;96083.84;4951737;28;20047;-71
2021/08/02 03:52:33;;;;;;;6.22;3.72;;;;;;;14.33;79.69;96086.22;4952101;28;20058;-71
2021/08/02 03:55:00;;;;;;;5.78;3.30;;;;;;;14.36;79.66;96088.28;4951903;28;20048;-71
2021/08/02 03:57:29;;;;;;;5.55;3.63;;;;;;;14.38;79.94;96095.34;4951493;28;20047;-71
2021/08/02 03:59:55;;;;;;;6.00;3.80;;;;;;;14.35;80.06;96086.69;4951987;28;20043;-71
2021/08/02 04:02:22;;;;;;;6.60;3.83;;;;;;;14.35;79.22;96096.81;4951581;28;20061;-71
2021/08/02 04:04:48;;;;;;;6.60;4.30;;;;;;;14.35;79.31;96100.38;4951962;28;20410;-71
2021/08/02 04:07:16;;;;;;;7.30;3.53;;;;;;;14.36;79.00;96101.19;5016084;28;20055;-71
2021/08/02 04:09:43;;;;;;;7.68;4.03;;;;;;;14.35;78.96;96105.03;4951657;28;20051;-71
2021/08/02 04:12:10;;;;;;;6.13;3.47;;;;;;;14.35;79.08;96116.81;4951246;28;20383;-71
2021/08/02 04:14:36;;;;;;;9.65;3.97;;;;;;;14.34;78.70;96117.94;4951869;28;20051;-71
2021/08/02 04:17:03;;;;;;;5.38;4.10;;;;;;;14.31;78.89;96132.34;4951393;28;20053;-71
2021/08/02 04:19:30;;;;;;;6.32;4.50;;;;;;;14.31;78.64;96137.03;4951715;28;20449;-71
2021/08/02 04:21:58;;;;;;;11.13;4.32;;;;;;;14.28;78.54;96140.47;4951704;28;20059;-71
2021/08/02 04:24:26;;;;;;;8.85;3.95;;;;;;;14.24;78.84;96143.09;4951271;28;20522;-71
2021/08/02 04:26:53;;;;;;;5.13;3.55;;;;;;;14.24;79.29;96154.03;4951468;28;20082;-71
2021/08/02 04:29:19;;;;;;;6.93;3.90;;;;;;;14.28;79.36;96157.69;4951158;28;20043;-70
2021/08/02 04:31:46;;;;;;;7.30;4.18;;;;;;;14.32;78.96;96166.03;4951513;28;20070;-71
2021/08/02 04:34:12;;;;;;;5.88;3.97;;;;;;;14.33;79.21;96165.66;4951119;28;20051;-71
2021/08/02 04:36:39;;;;;;;11.18;4.50;;;;;;;14.39;79.32;96168.94;4951311;28;20055;-72
2021/08/02 04:39:06;;;;;;;8.32;4.25;;;;;;;14.46;79.22;96165.63;4950339;28;20490;-72
2021/08/02 04:41:34;;;;;;;7.47;3.78;;;;;;;14.53;79.43;96165.88;4951262;28;20619;-71
2021/08/02 04:44:00;;;;;;;5.18;3.65;;;;;;;14.57;78.56;96169.53;4951200;28;20051;-71
2021/08/02 04:46:27;;;;;;;6.13;3.65;;;;;;;14.61;78.40;96173.94;4950858;28;20415;-71
2021/08/02 04:48:53;;;;;;;6.57;4.57;;;;;;;14.62;78.70;96169.28;4951321;28;20109;-71
2021/08/02 04:51:19;;;;;;;8.02;4.30;;;;;;;14.67;78.44;96166.28;4950462;28;20054;-71
2021/08/02 04:53:46;;;;;;;5.85;4.13;;;;;;;14.61;78.57;96170.41;4951298;28;20052;-71
2021/08/02 04:56:12;;;;;;;6.68;4.30;;;;;;;14.67;78.94;96166.28;4950484;28;20551;-71
2021/08/02 04:58:40;;;;;;;6.90;3.97;;;;;;;14.72;79.09;96168.78;4950261;28;20062;-71
2021/08/02 05:01:07;;;;;;;6.30;3.95;;;;;;;14.78;78.90;96161.09;4950659;28;20066;-71
2021/08/02 05:03:33;;;;;;;8.85;4.40;;;;;;;14.87;78.88;96159.78;4950914;28;20498;-71
2021/08/02 05:06:00;;;;;;;6.68;4.32;;;;;;;14.91;78.29;96164.56;4986886;28;20052;-71
2021/08/02 05:08:26;;;;;;;8.55;4.38;;;;;;;14.93;78.21;96165.00;4978026;28;20050;-71
2021/08/02 05:10:52;;;;;;;8.20;4.55;;;;;;;14.94;77.86;96164.66;4950510;28;20054;-71
2021/08/02 05:13:19;;;;;;;6.88;4.50;;;;;;;14.98;77.76;96165.56;4950191;28;20051;-71
2021/08/02 05:15:47;;;;;;;7.35;4.07;;;;;;;14.98;77.58;96170.22;4950742;28;20054;-71
2021/08/02 05:18:14;;;;;;;6.75;3.90;;;;;;;14.97;77.82;96171.38;4950057;28;20051;-71
2021/08/02 05:20:41;;;;;;;8.98;4.50;;;;;;;14.98;78.06;96173.81;4950462;28;20062;-71
2021/08/02 05:23:08;;;;;;;6.75;4.28;;;;;;;15.00;77.78;96167.94;4950249;28;20043;-71
2021/08/02 05:25:34;;;;;;;6.63;4.18;;;;;;;14.99;77.57;96171.84;4950651;28;20047;-71
2021/08/02 05:28:01;;;;;;;9.00;5.10;;;;;;;14.96;78.08;96162.38;4950530;28;20514;-71
2021/08/02 05:30:28;;;;;;;7.97;4.30;;;;;;;15.00;77.43;96173.44;4950364;28;20051;-71
2021/08/02 05:32:56;;;;;;;7.60;4.40;;;;;;;15.01;77.60;96169.53;4950382;28;20410;-71
2021/08/02 05:35:23;;;;;;;7.85;4.90;;;;;;;15.01;78.10;96161.31;4960073;28;20051;-71
2021/08/02 05:37:49;;;;;;;10.18;4.63;;;;;;;15.05;77.77;96159.47;5003513;28;20043;-71
2021/08/02 05:40:16;;;;;;;6.78;4.32;;;;;;;15.09;77.61;96155.69;4950152;28;20089;-71
2021/08/02 05:42:42;;;;;;;8.45;4.68;;;;;;;15.11;77.92;96158.06;4950355;28;20717;-71
2021/08/02 05:45:10;;;;;;;7.82;4.43;;;;;;;15.18;77.71;96152.75;4950004;28;20043;-71
2021/08/02 05:47:37;;;;;;;8.00;4.32;;;;;;;15.21;77.46;96151.25;4950077;28;20058;-73
2021/08/02 05:50:05;;;;;;;7.10;4.45;;;;;;;15.30;77.28;96160.13;4950014;28;20059;-73
2021/08/02 05:52:32;;;;;;;8.75;4.82;;;;;;;15.33;76.36;96154.72;4950227;28;20134;-71
2021/08/02 05:54:59;;;;;;;7.38;4.38;;;;;;;15.37;76.21;96165.78;4949851;28;20062;-71
2021/08/02 05:57:26;;;;;;;6.03;4.18;;;;;;;15.36;76.73;96154.03;4949590;28;20047;-71
2021/08/02 05:59:53;;;;;;;8.13;4.60;;;;;;;15.43;76.66;96152.59;4949932;28;20052;-73
2021/08/02 06:02:19;;;;;;;9.73;4.65;;;;;;;15.42;75.79;96159.25;4949673;28;20066;-73
2021/08/02 06:04:46;;;;;;;6.60;4.35;;;;;;;15.45;75.49;96162.06;4949978;28;20055;-72
2021/08/02 06:07:14;;;;;;;9.15;4.45;;;;;;;15.50;75.93;96169.22;4945011;28;20053;-71
2021/08/02 06:09:40;;;;;;;7.95;4.72;;;;;;;15.53;76.16;96174.03;4950875;28;20044;-71
2021/08/02 06:12:09;;;;;;;5.70;4.18;;;;;;;15.58;75.50;96182.00;4952022;28;20051;-71
2021/08/02 06:14:36;;;;;;;7.63;5.20;;;;;;;15.65;75.94;96182.19;4952189;28;20047;-71
2021/08/02 06:17:02;;;;;;;8.43;4.57;;;;;;;15.78;75.81;96193.88;4952976;28;20048;-73
2021/08/02 06:19:29;;;;;;;10.88;4.28;;;;;;;15.82;74.36;96187.34;4953458;28;20079;-71
2021/08/02 06:21:55;;;;;;;10.98;4.07;;;;;;;15.86;73.42;96192.88;4953524;28;20074;-73
2021/08/02 06:24:23;;;;;;;7.57;4.05;;;;;;;15.89;73.89;96198.47;4952878;28;20525;-71
2021/08/02 06:26:50;;;;;;;6.57;4.32;;;;;;;15.97;74.92;96204.13;4953368;28;20074;-71
2021/08/02 06:29:16;;;;;;;7.55;3.90;;;;;;;16.01;73.28;96202.28;4952765;28;20058;-71
2021/08/02 06:31:42;;;;;;;6.78;4.30;;;;;;;16.01;73.43;96199.53;4953225;28;20051;-71
2021/08/02 06:34:10;;;;;;;8.13;4.25;;;;;;;16.01;73.54;96205.81;4952861;28;20043;-71
2021/08/02 06:36:37;;;;;;;5.45;4.05;;;;;;;16.03;73.31;96197.22;4952954;28;20134;-71
2021/08/02 06:39:04;;;;;;;7.47;4.00;;;;;;;16.07;72.86;96198.09;4952773;28;20051;-71
2021/08/02 06:41:32;;;;;;;7.25;4.38;;;;;;;16.13;73.70;96213.13;4953209;28;20056;-71
2021/08/02 06:43:58;;;;;;;7.85;4.03;;;;;;;16.21;73.28;96208.63;4953240;28;20046;-71
2021/08/02 06:46:25;;;;;;;9.23;4.35;;;;;;;16.29;73.20;96211.19;4952543;28;20055;-71
2021/08/02 06:48:51;;;;;;;7.22;3.45;;;;;;;16.39;71.94;96216.13;4952995;28;20047;-71
2021/08/02 06:51:19;;;;;;;7.43;3.60;;;;;;;16.43;71.88;96214.22;4952396;28;20051;-71
2021/08/02 06:53:45;;;;;;;7.72;3.67;;;;;;;16.50;71.41;96215.56;4952993;28;20047;-73
2021/08/02 06:56:12;;;;;;;7.03;3.92;;;;;;;16.63;72.24;96214.25;4952405;28;20047;-71
2021/08/02 06:58:40;;;;;;;9.27;3.63;;;;;;;16.80;71.78;96213.84;4952979;28;20047;-71
2021/08/02 07:01:06;;;;;;;6.50;3.88;;;;;;;16.92;70.00;96218.44;4952457;28;20051;-71
2021/08/02 07:03:33;;;;;;;7.60;3.70;;;;;;;17.05;71.02;96219.88;4952823;28;20052;-71
2021/08/02 07:05:59;;;;;;;6.65;3.75;;;;;;;17.10;70.27;96221.53;4953344;28;20052;-71
2021/08/02 07:08:25;;;;;;;6.03;3.00;;;;;;;17.06;68.57;96217.91;4952143;28;20047;-71
2021/08/02 07:10:52;;;;;;;4.32;3.17;;;;;;;17.00;68.48;96216.63;4952700;28;20421;-71
2021/08/02 07:13:19;;;;;;;5.93;3.10;;;;;;;17.04;69.61;96218.28;4952369;28;20054;-71
2021/08/02 07:15:46;;;;;;;5.53;3.03;;;;;;;17.06;69.98;96215.16;4952676;28;20054;-71
2021/08/02 07:18:13;;;;;;;10.30;3.90;;;;;;;17.10;68.45;96221.53;4952054;28;20051;-71
2021/08/02 07:20:39;;;;;;;5.15;3.20;;;;;;;17.13;69.90;96215.31;4951917;28;20051;-71
2021/08/02 07:23:06;;;;;;;6.53;3.47;;;;;;;17.11;69.25;96210.16;4952149;28;20062;-71
2021/08/02 07:25:33;;;;;;;5.63;3.40;;;;;;;17.14;70.99;96219.66;4952497;28;20051;-71
2021/08/02 07:27:59;;;;;;;5.65;3.58;;;;;;;17.16;70.75;96220.06;4952367;28;20075;-71
2021/08/02 07:30:26;;;;;;;5.78;3.20;;;;;;;17.14;69.54;96223.19;4951933;28;20047;-71
2021/08/02 07:32:53;;;;;;;5.57;3.40;;;;;;;17.15;69.88;96224.00;4952297;28;20047;-71
2021/08/02 07:35:20;;;;;;;8.45;3.42;;;;;;;17.16;70.94;96225.56;4952786;28;20058;-71
2021/08/02 07:37:47;;;;;;;7.47;3.22;;;;;;;17.20;69.91;96220.94;4952299;28;20054;-76
2021/08/02 07:40:14;;;;;;;10.98;3.58;;;;;;;17.11;69.27;96232.16;4951491;28;20051;-75
2021/08/02 07:42:41;;;;;;;6.65;3.67;;;;;;;17.13;69.46;96232.63;4951955;28;20490;-75
2021/08/02 07:45:08;;;;;;;6.18;3.97;;;;;;;17.17;69.02;96233.50;4951626;28;20498;-75
2021/08/02 07:47:34;;;;;;;5.97;3.92;;;;;;;17.22;70.57;96224.13;4951907;28;20055;-77
2021/08/02 07:50:03;;;;;;;7.97;3.22;;;;;;;17.31;71.45;96221.94;4951768;28;20055;-75
2021/08/02 07:52:31;;;;;;;7.10;3.65;;;;;;;17.58;71.58;96220.06;4951538;28;20052;-75
2021/08/02 07:54:58;;;;;;;9.73;3.90;;;;;;;17.87;70.43;96218.63;4951959;28;20517;-75
2021/08/02 07:57:24;;;;;;;6.80;3.53;;;;;;;18.09;69.73;96216.22;4951344;28;20059;-75
2021/08/02 07:59:51;;;;;;;6.00;3.38;;;;;;;18.14;67.69;96218.66;4951633;28;20430;-75
2021/08/02 08:02:18;;;;;;;6.45;3.38;;;;;;;18.11;67.84;96216.63;4951345;28;20048;-75
2021/08/02 08:04:44;;;;;;;5.72;3.60;;;;;;;18.14;66.33;96216.69;4952163;28;20070;-75
2021/08/02 08:07:12;;;;;;;10.30;3.90;;;;;;;18.23;68.02;96210.94;4951766;28;20055;-75
2021/08/02 08:09:38;;;;;;;4.95;3.20;;;;;;;19.13;63.99;96218.47;4951814;28;20063;-71
2021/08/02 08:12:06;;;;;;;7.32;3.20;;;;;;;20.37;61.56;96216.09;4951287;28;20055;-72
2021/08/02 08:14:32;;;;;;;6.85;3.17;;;;;;;21.24;57.99;96216.13;4951686;28;20051;-71
2021/08/02 08:16:59;;;;;;;7.63;3.00;;;;;;;22.20;54.55;96214.75;4951749;28;20532;-73
2021/08/02 08:19:25;;;;;;;4.35;2.95;;;;;;;22.56;54.79;96205.19;4951058;28;20078;-73
2021/08/02 08:21:52;;;;;;;7.03;3.40;;;;;;;22.46;51.89;96211.56;4951563;28;20047;-73
2021/08/02 08:24:20;;;;;;;5.43;2.92;;;;;;;22.25;54.24;96211.59;4951118;28;20054;-72
2021/08/02 08:26:46;;;;;;;5.57;2.85;;;;;;;22.45;53.98;96221.06;4951758;28;20050;-73
2021/08/02 08:29:13;;;;;;;4.15;2.85;;;;;;;22.62;53.82;96208.34;4950969;28;20050;-73
2021/08/02 08:31:39;;;;;;;7.18;2.90;;;;;;;22.37;54.21;96211.97;4950679;28;20078;-72
2021/08/02 08:34:06;;;;;;;6.75;2.70;;;;;;;22.24;54.41;96215.53;4950369;28;20043;-70
2021/08/02 08:36:32;;;;;;;4.57;2.72;;;;;;;21.86;52.56;96209.56;5009810;28;20057;-70
2021/08/02 08:39:00;;;;;;;5.75;3.30;;;;;;;21.48;54.07;96217.44;4955785;28;20054;-70
2021/08/02 08:41:28;;;;;;;9.23;3.47;;;;;;;21.16;57.58;96213.75;4950632;28;20057;-72
2021/08/02 08:43:55;;;;;;;5.97;2.92;;;;;;;20.64;56.01;96221.41;4951031;28;20126;-74
2021/08/02 08:46:23;;;;;;;5.38;2.97;;;;;;;20.36;58.83;96214.50;4950794;28;20472;-73
2021/08/02 08:48:51;;;;;;;5.93;2.75;;;;;;;19.99;59.57;96218.19;4950926;28;20073;-74
2021/08/02 08:51:19;;;;;;;6.22;3.15;;;;;;;19.89;61.54;96209.75;4950071;28;20391;-74
2021/08/02 08:53:46;;;;;;;6.32;2.90;;;;;;;20.10;59.99;96209.16;4951038;28;20055;-76
2021/08/02 08:56:16;;;;;;;5.38;3.10;;;;;;;20.21;59.79;96215.56;4950560;28;20047;-76
2021/08/02 08:58:45;;;;;;;6.13;3.33;;;;;;;20.10;60.54;96217.44;4950842;28;20047;-75
2021/08/02 09:01:12;;;;;;;6.28;2.90;;;;;;;20.07;60.39;96221.78;4950592;28;20051;-75
2021/08/02 09:03:38;;;;;;;5.22;3.22;;;;;;;20.26;63.33;96217.97;4951024;28;20051;-75
2021/08/02 09:06:06;;;;;;;6.72;3.10;;;;;;;21.52;57.62;96215.47;4989074;28;20053;-75
2021/08/02 09:08:41;;;;;;;6.13;3.38;;;;;;;21.58;57.19;96213.88;4972665;28;20047;-75
2021/08/02 09:11:08;;;;;;;6.05;2.97;;;;;;;21.52;55.94;96225.75;4949412;28;20047;-75
2021/08/02 09:13:37;;;;;;;4.65;2.97;;;;;;;21.07;55.88;96220.44;4949355;28;20414;-75
2021/08/02 09:16:15;;;;;;;5.18;3.10;;;;;;;20.86;58.62;96223.09;4949113;28;20124;-74
2021/08/02 09:18:47;;;;;;;4.57;3.40;;;;;;;20.57;59.16;96222.97;4950464;28;20528;-75
2021/08/02 09:21:13;;;;;;;8.25;3.45;;;;;;;20.36;60.25;96222.78;4949071;28;20391;-75
2021/08/02 09:23:47;;;;;;;8.75;3.15;;;;;;;20.10;60.33;96225.72;4950522;28;20051;-75
2021/08/02 09:26:14;;;;;;;8.05;3.50;;;;;;;19.85;60.63;96223.56;4949486;28;20050;-75
2021/08/02 09:28:51;;;;;;;4.88;3.40;;;;;;;19.70;62.52;96227.38;4949703;28;20494;-75
2021/08/02 09:31:19;;;;;;;5.90;2.65;;;;;;;19.62;60.79;96222.94;4949623;28;20051;-74
2021/08/02 09:33:47;;;;;;;4.38;2.97;;;;;;;19.58;60.83;96227.63;4949477;28;20043;-75
2021/08/02 09:36:14;;;;;;;8.00;2.80;;;;;;;19.48;60.68;96229.91;4950706;28;20051;-76
2021/08/02 09:38:41;;;;;;;3.97;2.75;;;;;;;19.32;60.38;96234.06;4949152;28;20623;-75
2021/08/02 09:41:07;;;;;;;9.27;2.90;;;;;;;19.47;61.87;96227.50;4950037;28;20051;-74
2021/08/02 09:43:34;;;;;;;5.00;2.60;;;;;;;19.64;60.33;96237.19;4948898;28;20249;-75
2021/08/02 09:46:03;;;;;;;4.93;2.40;;;;;;;19.63;60.08;96235.56;4950124;28;20058;-75
2021/08/02 09:48:38;;;;;;;5.38;2.67;;;;;;;19.56;60.26;96237.06;4949180;28;20406;-75
2021/08/02 09:51:09;;;;;;;4.55;2.92;;;;;;;19.47;60.55;96239.38;4949253;28;20059;-76
2021/08/02 09:53:38;;;;;;;6.43;3.33;;;;;;;19.33;62.41;96230.13;4949589;28;20055;-74
2021/08/02 09:56:06;;;;;;;8.65;2.92;;;;;;;19.20;61.77;96237.84;4948830;28;20530;-74
2021/08/02 09:58:36;;;;;;;5.38;3.40;;;;;;;19.10;63.24;96241.28;4949793;28;20105;-75
2021/08/02 10:01:02;;;;;;;6.22;3.47;;;;;;;19.11;63.46;96234.63;4948425;28;20054;-73
2021/08/02 10:03:30;;;;;;;6.38;2.92;;;;;;;19.22;64.00;96227.25;4949992;28;20051;-74
2021/08/02 10:05:58;;;;;;;5.55;3.33;;;;;;;19.40;63.59;96230.97;4982965;28;20056;-74
2021/08/02 10:08:25;;;;;;;7.72;3.63;;;;;;;19.59;62.72;96229.22;4977845;28;20074;-75
2021/08/02 10:10:52;;;;;;;5.40;3.17;;;;;;;19.71;62.44;96231.72;4949152;28;20143;-76
2021/08/02 10:13:23;;;;;;;5.78;3.28;;;;;;;19.95;61.50;96231.16;4948983;28;20047;-74
2021/08/02 10:15:52;;;;;;;6.00;3.47;;;;;;;20.10;60.60;96237.59;4949610;28;20059;-75
2021/08/02 10:18:20;;;;;;;5.70;3.10;;;;;;;20.18;59.78;96232.91;4948389;28;20044;-74
2021/08/02 10:20:49;;;;;;;7.47;3.47;;;;;;;20.25;62.66;96235.72;4949707;28;20047;-75
2021/08/02 10:23:25;;;;;;;4.03;2.80;;;;;;;20.29;59.60;96234.56;4947885;28;20054;-76
2021/08/02 10:25:52;;;;;;;5.40;2.70;;;;;;;20.43;59.88;96228.38;4949914;28;20054;-74
2021/08/02 10:28:20;;;;;;;5.15;2.90;;;;;;;20.55;60.34;96221.75;4948161;28;20047;-74
2021/08/02 10:30:48;;;;;;;5.15;2.80;;;;;;;20.55;57.89;96219.78;4949412;28;20112;-76
2021/08/02 10:33:14;;;;;;;4.50;2.50;;;;;;;20.75;61.79;96220.28;4948041;28;20051;-75
2021/08/02 10:35:43;;;;;;;4.00;2.53;;;;;;;21.15;60.20;96223.25;4972031;28;20049;-74
2021/08/02 10:38:12;;;;;;;4.13;2.42;;;;;;;21.50;58.18;96217.81;4988143;28;20062;-74
2021/08/02 10:40:54;;;;;;;4.15;2.38;;;;;;;21.84;58.69;96209.19;4948741;28;20051;-75
2021/08/02 10:43:32;;;;;;;3.65;1.63;;;;;;;22.01;56.55;96202.84;4948886;28;20055;-74
2021/08/02 10:45:59;;;;;;;4.93;2.45;;;;;;;22.21;53.04;96210.78;4948588;28;20055;-75
2021/08/02 10:48:27;;;;;;;4.22;2.08;;;;;;;22.17;53.93;96210.00;4948823;28;20051;-75
2021/08/02 10:50:55;;;;;;;3.92;1.88;;;;;;;21.89;53.82;96198.47;4948682;28;20039;-74
2021/08/02 10:53:21;;;;;;;5.97;2.22;;;;;;;21.78;55.39;96194.13;4948521;28;20047;-74
2021/08/02 10:55:50;;;;;;;3.85;2.35;;;;;;;21.63;53.64;96185.78;4949759;28;20062;-74
2021/08/02 10:58:29;;;;;;;4.25;1.90;;;;;;;21.52;53.43;96198.84;4951674;28;20497;-75
2021/08/02 11:00:57;;;;;;;3.72;1.95;;;;;;;21.46;56.10;96188.53;4952102;28;20501;-74
2021/08/02 11:03:32;;;;;;;3.42;1.90;;;;;;;21.39;54.74;96189.31;4950528;28;20140;-74
2021/08/02 11:06:05;;;;;;;8.45;2.35;;;;;;;21.44;54.87;96196.44;4987662;28;20056;-75
2021/08/02 11:08:35;;;;;;;3.90;2.10;;;;;;;21.40;53.48;96192.88;4975056;28;20048;-75
2021/08/02 11:11:04;;;;;;;6.22;2.00;;;;;;;21.50;58.35;96184.56;4952290;28;20051;-75
2021/08/02 11:13:32;;;;;;;4.78;2.33;;;;;;;21.72;54.05;96173.53;4951403;28;20526;-75
2021/08/02 11:16:00;;;;;;;2.55;2.00;;;;;;;21.69;50.43;96174.31;4951915;28;20049;-75
2021/08/02 11:18:28;;;;;;;3.63;2.25;;;;;;;21.57;51.38;96162.44;4951561;28;20456;-75
2021/08/02 11:20:55;;;;;;;4.78;2.20;;;;;;;21.57;52.21;96167.19;4951577;28;20413;-75
2021/08/02 11:23:34;;;;;;;3.28;2.20;;;;;;;21.69;52.18;96157.69;4952000;28;20051;-75
2021/08/02 11:26:08;;;;;;;3.10;2.38;;;;;;;21.61;52.33;96154.94;4951421;28;20051;-75
2021/08/02 11:28:44;;;;;;;5.38;2.45;;;;;;;21.69;54.90;96164.03;4951924;28;20081;-75
2021/08/02 11:31:11;;;;;;;3.85;2.20;;;;;;;21.65;51.96;96162.44;4951095;28;20410;-75
2021/08/02 11:33:41;;;;;;;4.00;2.20;;;;;;;21.54;51.70;96173.50;4951778;28;20082;-76
2021/08/02 11:36:14;;;;;;;4.03;2.10;;;;;;;21.37;52.30;96172.28;4952103;28;20048;-75
2021/08/02 11:38:41;;;;;;;2.58;1.95;;;;;;;21.28;54.69;96172.63;4951213;28;20532;-76
2021/08/02 11:41:08;;;;;;;3.42;2.15;;;;;;;21.18;52.74;96178.13;4951518;28;20058;-75